Time;durP1;ratioP1;P1;durP2;ratioP2;P2;SDS_P1;SDS_P2;PMS_P1;PMS_P2;Temp;Humidity;BMP_temperature;BMP_pressure;BME280_temperature;BME280_humidity;BME280_pressure;Samples;Min_cycle;Max_cycle;Signal;HPM_P1;HPM_P2
2023/04/01 00:00:52;;;;;;;10.53;7.20;;;9.80;99.90;;;;;;4932434;29;20238;-62
2023/04/01 00:03:21;;;;;;;10.03;8.07;;;9.80;99.90;;;;;;4917269;29;20231;-62
2023/04/01 00:05:50;;;;;;;11.07;7.43;;;9.80;99.90;;;;;;4931578;29;20303;-62
2023/04/01 00:08:18;;;;;;;11.73;7.80;;;9.80;99.90;;;;;;4936012;29;20249;-62
2023/04/01 00:10:46;;;;;;;10.77;8.30;;;9.80;99.90;;;;;;4936027;29;20235;-61
2023/04/01 00:13:15;;;;;;;11.70;8.30;;;9.80;99.90;;;;;;4936104;29;20693;-62
2023/04/01 00:15:45;;;;;;;10.40;7.80;;;9.80;99.90;;;;;;4927989;29;20222;-62
2023/04/01 00:18:13;;;;;;;11.10;7.43;;;9.70;99.90;;;;;;4935657;29;20273;-62
2023/04/01 00:20:44;;;;;;;11.67;7.90;;;9.70;99.90;;;;;;4929728;29;20239;-62
2023/04/01 00:23:13;;;;;;;10.47;8.00;;;9.70;99.90;;;;;;4916734;29;20235;-62
2023/04/01 00:25:41;;;;;;;9.93;7.43;;;9.70;99.90;;;;;;4916521;29;20222;-62
2023/04/01 00:28:09;;;;;;;11.97;8.03;;;9.70;99.90;;;;;;4916571;29;20234;-62
2023/04/01 00:30:38;;;;;;;12.17;8.33;;;9.70;99.90;;;;;;4931420;29;20244;-62
2023/04/01 00:33:07;;;;;;;8.67;7.73;;;9.70;99.90;;;;;;4916684;29;20246;-62
2023/04/01 00:35:36;;;;;;;13.17;8.37;;;9.70;99.90;;;;;;4929612;29;20241;-62
2023/04/01 00:38:06;;;;;;;10.30;8.27;;;9.70;99.90;;;;;;4935628;29;20228;-62
2023/04/01 00:40:36;;;;;;;11.13;8.40;;;9.70;99.90;;;;;;4934080;29;20663;-62
2023/04/01 00:43:10;;;;;;;12.37;8.13;;;9.70;99.90;;;;;;4935503;29;20622;-62
2023/04/01 00:45:40;;;;;;;11.73;8.33;;;9.80;99.90;;;;;;4925867;29;20242;-61
2023/04/01 00:48:14;;;;;;;10.33;8.20;;;9.80;99.90;;;;;;4934197;29;20602;-62
2023/04/01 00:50:45;;;;;;;12.63;8.60;;;9.80;99.90;;;;;;4941359;29;20232;-62
2023/04/01 00:53:15;;;;;;;11.17;8.77;;;9.80;99.90;;;;;;4916439;29;20313;-62
2023/04/01 00:55:50;;;;;;;15.40;9.60;;;9.80;99.90;;;;;;4915044;29;20230;-62
2023/04/01 00:58:21;;;;;;;12.63;9.43;;;9.80;99.90;;;;;;4915405;29;20255;-62
2023/04/01 01:00:51;;;;;;;13.53;8.60;;;9.80;99.90;;;;;;4927385;29;20235;-60
2023/04/01 01:03:20;;;;;;;15.73;9.30;;;9.80;99.90;;;;;;4955023;23;20242;-61
2023/04/01 01:06:12;;;;;;;12.37;8.83;;;9.70;99.90;;;;;;4913037;29;20712;-61
2023/04/01 01:09:03;;;;;;;10.33;8.03;;;9.70;99.90;;;;;;4922484;29;20260;-61
2023/04/01 01:11:40;;;;;;;11.93;8.50;;;9.80;99.90;;;;;;4919986;29;20224;-60
2023/04/01 01:14:25;;;;;;;11.03;9.03;;;9.80;99.90;;;;;;4918771;29;20731;-61
2023/04/01 01:16:59;;;;;;;13.53;9.33;;;9.80;99.90;;;;;;4919919;29;20231;-59
2023/04/01 01:19:49;;;;;;;13.80;9.07;;;9.80;99.90;;;;;;4917651;29;20228;-61
2023/04/01 01:22:37;;;;;;;13.90;8.87;;;9.80;99.90;;;;;;4914465;29;20234;-60
2023/04/01 01:25:19;;;;;;;15.83;9.30;;;9.80;99.90;;;;;;4919922;29;20241;-61
2023/04/01 01:27:55;;;;;;;14.27;9.17;;;9.80;99.90;;;;;;4934290;29;20281;-60
2023/04/01 01:30:38;;;;;;;16.93;9.87;;;9.80;99.90;;;;;;4919287;29;20602;-61
2023/04/01 01:33:26;;;;;;;13.47;8.67;;;9.80;99.90;;;;;;4900841;29;20762;-61
2023/04/01 01:35:59;;;;;;;13.30;9.10;;;9.80;99.90;;;;;;4915329;29;20703;-61
2023/04/01 01:38:31;;;;;;;11.90;9.27;;;9.70;99.90;;;;;;4899379;29;20321;-60
2023/04/01 01:41:08;;;;;;;15.47;9.87;;;9.70;99.90;;;;;;4915410;29;20265;-60
2023/04/01 01:43:40;;;;;;;13.47;8.97;;;9.70;99.90;;;;;;4919902;29;20262;-61
2023/04/01 01:46:12;;;;;;;12.63;9.47;;;9.80;99.90;;;;;;4923822;29;20243;-61
2023/04/01 01:48:42;;;;;;;14.57;9.63;;;9.80;99.90;;;;;;4933856;29;20713;-61
2023/04/01 01:51:12;;;;;;;14.17;9.50;;;9.80;99.90;;;;;;4933914;29;20229;-61
2023/04/01 01:53:40;;;;;;;11.70;9.03;;;9.80;99.90;;;;;;4933857;29;20229;-60
2023/04/01 01:56:12;;;;;;;11.90;8.90;;;9.80;99.90;;;;;;4919598;29;20244;-61
2023/04/01 01:58:44;;;;;;;12.57;9.20;;;9.80;99.90;;;;;;4917836;29;20236;-61
2023/04/01 02:01:18;;;;;;;14.97;9.00;;;9.90;99.90;;;;;;4917378;29;20241;-60
2023/04/01 02:03:47;;;;;;;12.80;8.80;;;9.90;99.90;;;;;;4917843;29;20718;-61
2023/04/01 02:06:20;;;;;;;13.70;8.77;;;9.90;99.90;;;;;;4881588;29;20239;-61
2023/04/01 02:08:53;;;;;;;10.70;8.53;;;9.90;99.90;;;;;;4880148;29;20230;-61
2023/04/01 02:11:27;;;;;;;12.80;8.67;;;9.90;99.90;;;;;;4880813;29;20591;-61
2023/04/01 02:13:58;;;;;;;11.43;8.07;;;9.90;99.90;;;;;;4902856;29;20240;-61
2023/04/01 02:16:31;;;;;;;12.87;8.70;;;9.90;99.90;;;;;;4899866;29;20586;-61
2023/04/01 02:19:02;;;;;;;12.33;9.20;;;9.90;99.90;;;;;;4914444;29;20246;-61
2023/04/01 02:21:33;;;;;;;12.20;9.30;;;9.80;99.90;;;;;;4903284;29;20259;-59
2023/04/01 02:24:03;;;;;;;12.07;8.90;;;9.80;99.90;;;;;;4899973;29;20689;-61
2023/04/01 02:26:31;;;;;;;13.90;9.73;;;9.90;99.90;;;;;;4914204;29;20320;-61
2023/04/01 02:29:02;;;;;;;15.27;9.50;;;9.80;99.90;;;;;;4898581;29;20231;-61
2023/04/01 02:31:30;;;;;;;12.53;8.93;;;9.90;99.90;;;;;;4897878;29;20266;-61
2023/04/01 02:33:59;;;;;;;11.90;9.10;;;9.80;99.90;;;;;;4914034;29;20320;-61
2023/04/01 02:36:27;;;;;;;13.87;9.63;;;9.80;99.90;;;;;;4898308;29;20265;-60
2023/04/01 02:39:01;;;;;;;12.77;9.47;;;9.80;99.90;;;;;;4899738;29;20279;-61
2023/04/01 02:41:30;;;;;;;12.40;9.37;;;9.80;99.90;;;;;;4899624;29;20228;-61
2023/04/01 02:43:59;;;;;;;12.70;10.00;;;9.80;99.90;;;;;;4913935;29;20606;-61
2023/04/01 02:46:27;;;;;;;11.43;8.83;;;9.80;99.90;;;;;;4897962;29;20254;-61
2023/04/01 02:48:55;;;;;;;13.50;9.57;;;9.80;99.90;;;;;;4899448;29;20310;-61
2023/04/01 02:51:23;;;;;;;14.80;10.07;;;9.80;99.90;;;;;;4910745;29;20232;-61
2023/04/01 02:53:51;;;;;;;12.20;9.60;;;9.80;99.90;;;;;;4881020;29;20284;-61
2023/04/01 02:56:21;;;;;;;12.60;9.30;;;9.80;99.90;;;;;;4895170;29;20232;-61
2023/04/01 02:58:50;;;;;;;12.03;9.47;;;9.80;99.90;;;;;;4904173;29;20246;-61
2023/04/01 03:01:18;;;;;;;14.33;9.70;;;9.80;99.90;;;;;;4898806;29;20239;-61
2023/04/01 03:03:46;;;;;;;12.70;10.10;;;9.80;99.90;;;;;;4888927;29;20732;-61
2023/04/01 03:06:16;;;;;;;14.30;9.60;;;9.80;99.90;;;;;;4880489;29;20279;-61
2023/04/01 03:08:45;;;;;;;12.37;8.87;;;9.90;99.90;;;;;;4879184;29;20257;-61
2023/04/01 03:11:14;;;;;;;11.57;10.03;;;9.90;99.90;;;;;;4879262;29;20734;-61
2023/04/01 03:13:44;;;;;;;14.50;10.43;;;9.80;99.90;;;;;;4899962;29;20326;-61
2023/04/01 03:16:12;;;;;;;12.77;9.80;;;9.80;99.90;;;;;;4908407;29;20275;-61
2023/04/01 03:18:40;;;;;;;13.93;9.30;;;9.80;99.90;;;;;;4913290;29;20241;-61
2023/04/01 03:21:16;;;;;;;10.57;9.03;;;9.80;99.90;;;;;;4905408;29;20231;-61
2023/04/01 03:23:44;;;;;;;14.60;9.57;;;9.80;99.90;;;;;;4897777;29;20241;-61
2023/04/01 03:26:13;;;;;;;11.67;9.37;;;9.80;99.90;;;;;;4897910;29;20238;-61
2023/04/01 03:28:42;;;;;;;11.50;9.10;;;9.70;99.90;;;;;;4897321;29;20237;-61
2023/04/01 03:31:12;;;;;;;12.00;8.57;;;9.80;99.90;;;;;;4896924;29;20278;-61
2023/04/01 03:33:47;;;;;;;9.20;7.37;;;9.80;99.90;;;;;;4905987;29;20777;-61
2023/04/01 03:36:15;;;;;;;12.30;9.23;;;9.80;99.90;;;;;;4897577;29;20245;-57
2023/04/01 03:38:44;;;;;;;10.87;8.13;;;9.80;99.90;;;;;;4912951;29;20227;-60
2023/04/01 03:41:16;;;;;;;10.57;8.90;;;9.80;99.90;;;;;;4913052;29;20234;-60
2023/04/01 03:43:45;;;;;;;10.27;8.27;;;9.80;99.90;;;;;;4897086;29;20698;-61
2023/04/01 03:46:19;;;;;;;10.43;8.20;;;9.80;99.90;;;;;;4912894;29;20263;-61
2023/04/01 03:48:48;;;;;;;9.67;8.23;;;9.80;99.90;;;;;;4912693;29;20333;-61
2023/04/01 03:51:16;;;;;;;11.77;8.43;;;9.80;99.90;;;;;;4898402;29;20237;-60
2023/04/01 03:53:44;;;;;;;8.53;7.70;;;9.80;99.90;;;;;;4896986;29;20255;-61
2023/04/01 03:56:12;;;;;;;9.33;8.27;;;9.80;99.90;;;;;;4897082;29;20282;-59
2023/04/01 03:58:40;;;;;;;9.57;8.37;;;9.80;99.90;;;;;;4896798;29;20252;-61
2023/04/01 04:01:20;;;;;;;10.37;8.03;;;9.80;99.90;;;;;;4896553;29;20697;-61
2023/04/01 04:03:51;;;;;;;9.30;8.20;;;9.90;99.90;;;;;;4911910;29;20253;-61
2023/04/01 04:06:20;;;;;;;9.17;8.27;;;9.80;99.90;;;;;;4898138;29;20226;-61
2023/04/01 04:08:49;;;;;;;11.47;8.27;;;9.80;99.90;;;;;;4896639;29;20269;-60
2023/04/01 04:11:17;;;;;;;10.43;8.70;;;9.70;99.90;;;;;;4912596;29;20235;-60
2023/04/01 04:13:47;;;;;;;10.50;8.83;;;9.80;99.90;;;;;;4912303;29;20358;-61
2023/04/01 04:16:17;;;;;;;10.90;9.60;;;9.70;99.90;;;;;;4912378;29;20324;-60
2023/04/01 04:18:51;;;;;;;10.13;9.03;;;9.70;99.90;;;;;;4912293;29;20693;-61
2023/04/01 04:21:19;;;;;;;10.53;9.43;;;9.80;99.90;;;;;;4897680;29;20236;-61
2023/04/01 04:23:47;;;;;;;11.53;10.10;;;9.80;99.90;;;;;;4912166;29;20309;-61
2023/04/01 04:26:18;;;;;;;12.93;10.40;;;9.70;99.90;;;;;;4896878;29;20239;-59
2023/04/01 04:29:13;;;;;;;11.27;9.50;;;9.70;99.90;;;;;;4896554;29;20722;-61
2023/04/01 04:31:41;;;;;;;12.43;10.50;;;9.70;99.90;;;;;;4895877;29;20599;-61
2023/04/01 04:34:11;;;;;;;13.27;10.77;;;9.70;99.90;;;;;;4911874;29;20735;-61
2023/04/01 04:36:39;;;;;;;12.67;10.60;;;9.70;99.90;;;;;;4896306;29;20286;-61
2023/04/01 04:39:07;;;;;;;12.43;9.80;;;9.70;99.90;;;;;;4912651;29;20252;-61
2023/04/01 04:41:38;;;;;;;13.67;11.13;;;9.70;99.90;;;;;;4910098;29;20658;-60
2023/04/01 04:44:06;;;;;;;12.73;10.40;;;9.70;99.90;;;;;;4906038;29;20725;-61
2023/04/01 04:46:35;;;;;;;14.50;11.07;;;9.70;99.90;;;;;;4892473;29;20236;-61
2023/04/01 04:49:16;;;;;;;12.10;10.67;;;9.70;99.90;;;;;;4908908;29;20248;-60
2023/04/01 04:51:44;;;;;;;12.47;10.43;;;9.70;99.90;;;;;;4906412;29;20231;-61
2023/04/01 04:54:14;;;;;;;12.43;10.30;;;9.70;99.90;;;;;;4877971;29;20236;-61
2023/04/01 04:56:52;;;;;;;11.27;9.70;;;9.70;99.90;;;;;;4877658;29;20318;-61
2023/04/01 04:59:21;;;;;;;13.87;9.90;;;9.80;99.90;;;;;;4908431;29;20238;-61
2023/04/01 05:02:22;;;;;;;14.13;10.60;;;9.80;99.90;;;;;;4885509;29;20246;-60
2023/04/01 05:04:51;;;;;;;11.90;9.53;;;9.70;99.90;;;;;;4895964;29;20254;-61
2023/04/01 05:07:19;;;;;;;14.70;10.60;;;9.70;99.90;;;;;;4895884;29;20231;-61
2023/04/01 05:09:47;;;;;;;13.83;10.70;;;9.70;99.90;;;;;;4896101;29;20238;-61
2023/04/01 05:12:16;;;;;;;12.87;10.57;;;9.70;99.90;;;;;;4895596;29;20250;-60
2023/04/01 05:14:59;;;;;;;12.57;9.57;;;9.70;99.90;;;;;;4911803;29;20238;-61
2023/04/01 05:17:27;;;;;;;9.97;8.87;;;9.70;99.90;;;;;;4911755;29;20281;-60
2023/04/01 05:19:56;;;;;;;10.90;8.17;;;9.70;99.90;;;;;;4897333;29;20238;-61
2023/04/01 05:22:25;;;;;;;9.00;7.83;;;9.70;99.90;;;;;;4890492;29;20787;-60
2023/04/01 05:24:54;;;;;;;13.57;9.50;;;9.70;99.90;;;;;;4877478;29;20234;-61
2023/04/01 05:27:22;;;;;;;11.47;9.50;;;9.80;99.90;;;;;;4877399;29;20235;-61
2023/04/01 05:29:50;;;;;;;11.33;9.37;;;9.70;99.90;;;;;;4906881;29;20766;-60
2023/04/01 05:32:43;;;;;;;10.47;8.87;;;9.70;99.90;;;;;;4895837;29;20594;-61
2023/04/01 05:35:13;;;;;;;12.47;9.57;;;9.70;99.90;;;;;;4911824;29;20706;-61
2023/04/01 05:37:41;;;;;;;13.13;9.93;;;9.70;99.90;;;;;;4892343;29;20662;-61
2023/04/01 05:40:10;;;;;;;12.20;10.90;;;9.70;99.90;;;;;;4877492;29;20241;-61
2023/04/01 05:42:39;;;;;;;15.13;11.20;;;9.70;99.90;;;;;;4905214;29;20614;-61
2023/04/01 05:45:08;;;;;;;16.03;11.90;;;9.70;99.90;;;;;;4897152;29;20232;-61
2023/04/01 05:48:02;;;;;;;16.20;11.77;;;9.70;99.90;;;;;;4900257;29;20238;-61
2023/04/01 05:50:40;;;;;;;16.20;13.33;;;9.80;99.90;;;;;;4914762;29;20371;-61
2023/04/01 05:53:09;;;;;;;13.07;11.20;;;9.70;99.90;;;;;;4896517;29;20231;-61
2023/04/01 05:55:38;;;;;;;10.87;7.50;;;9.70;99.90;;;;;;4880385;29;20228;-61
2023/04/01 05:58:06;;;;;;;6.47;5.83;;;9.60;99.90;;;;;;4881168;29;20261;-60
2023/04/01 06:00:36;;;;;;;5.23;4.73;;;9.50;99.90;;;;;;4910147;29;20242;-61
2023/04/01 06:03:04;;;;;;;4.93;4.50;;;9.40;99.90;;;;;;4886805;29;20598;-61
2023/04/01 06:05:41;;;;;;;4.00;3.70;;;9.40;99.90;;;;;;4910366;29;20247;-61
2023/04/01 06:08:12;;;;;;;3.00;2.80;;;9.30;99.90;;;;;;4900286;29;20727;-61
2023/04/01 06:10:56;;;;;;;3.50;3.17;;;9.20;99.90;;;;;;4898884;29;20731;-61
2023/04/01 06:13:36;;;;;;;3.17;2.13;;;9.20;99.90;;;;;;4896538;29;20801;-59
2023/04/01 06:16:14;;;;;;;2.13;1.67;;;9.10;99.90;;;;;;4897068;29;20320;-60
2023/04/01 06:19:03;;;;;;;1.50;1.40;;;9.00;99.90;;;;;;4898234;29;20225;-60
2023/04/01 06:21:56;;;;;;;2.60;1.73;;;9.00;99.90;;;;;;4898164;29;20229;-61
2023/04/01 06:24:51;;;;;;;1.93;1.57;;;8.90;99.90;;;;;;4896171;29;20237;-59
2023/04/01 06:27:34;;;;;;;2.37;1.60;;;8.90;99.90;;;;;;4913003;29;20229;-60
2023/04/01 06:30:09;;;;;;;1.50;1.40;;;8.90;99.90;;;;;;4897645;29;20234;-60
2023/04/01 06:32:55;;;;;;;1.70;1.60;;;8.80;99.90;;;;;;4912358;29;20252;-60
2023/04/01 06:35:44;;;;;;;1.60;1.40;;;8.80;99.90;;;;;;4913257;29;20277;-60
2023/04/01 06:38:46;;;;;;;1.53;1.20;;;8.70;99.90;;;;;;4905657;29;20234;-61
2023/04/01 06:41:48;;;;;;;1.40;1.30;;;8.70;99.90;;;;;;4870627;29;20332;-61
2023/04/01 06:44:30;;;;;;;1.10;1.00;;;8.70;99.90;;;;;;4912658;29;20597;-61
2023/04/01 06:47:40;;;;;;;1.73;1.30;;;8.60;99.90;;;;;;4893789;29;20241;-60
2023/04/01 06:50:53;;;;;;;1.63;1.00;;;8.60;99.90;;;;;;4896874;29;20709;-60
2023/04/01 06:53:48;;;;;;;1.47;1.30;;;8.50;99.90;;;;;;4893864;29;20326;-62
2023/04/01 06:56:49;;;;;;;1.17;1.10;;;8.60;99.90;;;;;;4883788;29;20760;-61
2023/04/01 06:59:28;;;;;;;1.63;1.20;;;8.60;99.90;;;;;;4912040;29;20800;-60
2023/04/01 07:02:00;;;;;;;1.63;1.20;;;8.50;99.90;;;;;;4903929;29;20623;-60
2023/04/01 07:04:32;;;;;;;1.63;1.40;;;8.50;99.90;;;;;;4897626;29;20277;-60
2023/04/01 07:07:04;;;;;;;1.70;1.27;;;8.50;99.90;;;;;;4892911;29;20316;-60
2023/04/01 07:09:38;;;;;;;1.47;1.27;;;8.40;99.90;;;;;;4912286;29;20273;-60
2023/04/01 07:12:37;;;;;;;1.20;1.10;;;8.30;99.90;;;;;;4876312;29;20230;-61
2023/04/01 07:15:48;;;;;;;1.40;1.30;;;8.40;99.90;;;;;;4891531;29;20225;-58
2023/04/01 07:18:20;;;;;;;1.50;1.40;;;8.30;99.90;;;;;;4913140;29;20238;-60
2023/04/01 07:20:50;;;;;;;2.00;1.40;;;8.40;99.90;;;;;;4897514;29;20720;-61
2023/04/01 07:23:25;;;;;;;1.50;1.40;;;8.40;99.90;;;;;;4898875;29;20298;-61
2023/04/01 07:26:17;;;;;;;2.13;1.20;;;8.40;99.90;;;;;;4913367;29;20225;-61
2023/04/01 07:28:58;;;;;;;1.17;1.07;;;8.30;99.90;;;;;;4898875;29;20270;-61
2023/04/01 07:31:50;;;;;;;0.90;0.90;;;8.30;99.90;;;;;;4896647;29;20241;-60
2023/04/01 07:34:23;;;;;;;1.30;1.20;;;8.20;99.90;;;;;;4898791;29;20231;-60
2023/04/01 07:37:01;;;;;;;1.10;1.00;;;8.20;99.90;;;;;;4913058;29;20268;-61
2023/04/01 07:39:40;;;;;;;1.73;1.10;;;8.20;99.90;;;;;;4912938;29;20312;-61
2023/04/01 07:42:30;;;;;;;0.83;0.80;;;8.20;99.90;;;;;;4913174;29;20234;-61
2023/04/01 07:45:06;;;;;;;2.00;1.23;;;8.20;99.90;;;;;;4912067;29;20271;-60
2023/04/01 07:47:44;;;;;;;1.73;1.13;;;8.20;99.90;;;;;;4896684;29;20269;-60
2023/04/01 07:50:22;;;;;;;2.43;1.00;;;8.20;99.90;;;;;;4898017;29;20263;-60
2023/04/01 07:53:03;;;;;;;1.50;1.00;;;8.20;99.90;;;;;;4896750;29;20225;-61
2023/04/01 07:55:37;;;;;;;2.10;0.90;;;8.20;99.90;;;;;;4895176;29;20285;-61
2023/04/01 07:58:13;;;;;;;1.23;1.10;;;8.10;99.90;;;;;;4896619;29;20570;-61
2023/04/01 08:00:52;;;;;;;1.60;0.70;;;8.10;99.90;;;;;;4909524;29;20646;-61
2023/04/01 08:03:52;;;;;;;0.90;0.80;;;8.00;99.90;;;;;;4896262;29;20241;-61
2023/04/01 08:06:28;;;;;;;1.13;0.80;;;8.00;99.90;;;;;;4896327;29;20257;-60
2023/04/01 08:09:05;;;;;;;1.03;0.60;;;8.00;99.90;;;;;;4893391;29;20264;-60
2023/04/01 08:12:04;;;;;;;0.70;0.70;;;8.00;99.90;;;;;;4897867;29;20305;-61
2023/04/01 08:15:04;;;;;;;1.90;0.90;;;8.00;99.90;;;;;;4896185;29;20666;-61
2023/04/01 08:18:02;;;;;;;1.40;1.20;;;8.00;99.90;;;;;;4896517;29;20337;-61
2023/04/01 08:20:37;;;;;;;1.10;1.00;;;7.90;99.90;;;;;;4894688;29;20304;-61
2023/04/01 08:23:11;;;;;;;1.40;1.30;;;7.90;99.90;;;;;;4897600;29;20221;-61
2023/04/01 08:25:47;;;;;;;1.30;1.00;;;7.90;99.90;;;;;;4896044;29;20712;-61
2023/04/01 08:28:20;;;;;;;2.23;1.50;;;7.90;99.90;;;;;;4899022;29;20281;-61
2023/04/01 08:30:54;;;;;;;1.60;1.23;;;7.90;99.90;;;;;;4896178;29;20645;-61
2023/04/01 08:33:27;;;;;;;2.33;1.20;;;7.90;99.90;;;;;;4897292;29;20232;-60
2023/04/01 08:36:06;;;;;;;1.40;1.20;;;7.90;99.90;;;;;;4909353;29;20261;-61
2023/04/01 08:38:40;;;;;;;1.10;0.97;;;7.90;99.90;;;;;;4895703;29;20681;-61
2023/04/01 08:41:39;;;;;;;1.63;1.13;;;7.90;99.90;;;;;;4908660;29;20660;-60
2023/04/01 08:45:08;;;;;;;1.17;1.07;;;7.80;99.90;;;;;;4896179;29;20312;-62
2023/04/01 08:48:00;;;;;;;1.57;1.20;;;7.80;99.90;;;;;;4908148;29;20254;-59
2023/04/01 08:51:03;;;;;;;2.45;1.52;;;7.80;99.90;;;;;;4879444;29;20456;-62
2023/04/01 08:53:51;;;;;;;1.47;1.10;;;7.90;99.90;;;;;;4875446;29;20248;-61
2023/04/01 08:56:24;;;;;;;1.27;0.90;;;7.80;99.90;;;;;;4895949;29;20247;-62
2023/04/01 08:59:20;;;;;;;1.40;1.00;;;7.80;99.90;;;;;;4911333;29;20225;-62
2023/04/01 09:02:19;;;;;;;1.10;1.00;;;7.80;99.90;;;;;;4891245;29;20661;-61
2023/04/01 09:05:18;;;;;;;1.40;1.00;;;7.70;99.90;;;;;;4895183;29;20233;-61
2023/04/01 09:08:01;;;;;;;0.80;0.80;;;7.70;99.90;;;;;;4883185;29;20293;-56
2023/04/01 09:10:55;;;;;;;0.97;0.90;;;7.70;99.90;;;;;;4900571;29;20241;-61
2023/04/01 09:13:59;;;;;;;1.00;0.97;;;7.70;99.90;;;;;;4880856;29;20363;-61
2023/04/01 09:16:49;;;;;;;1.27;1.00;;;7.60;99.90;;;;;;4879832;29;20256;-61
2023/04/01 09:19:29;;;;;;;3.07;1.47;;;7.50;99.90;;;;;;4882004;29;20284;-62
2023/04/01 09:22:21;;;;;;;1.20;1.10;;;7.60;99.90;;;;;;4885122;29;20296;-59
2023/04/01 09:25:14;;;;;;;1.80;1.07;;;7.60;99.90;;;;;;4884868;29;20241;-57
2023/04/01 09:27:46;;;;;;;1.10;1.00;;;7.60;99.90;;;;;;4897097;29;20241;-61
2023/04/01 09:30:35;;;;;;;1.20;1.00;;;7.60;99.90;;;;;;4884208;29;20237;-60
2023/04/01 09:33:31;;;;;;;1.83;0.90;;;7.70;99.90;;;;;;4899251;29;20827;-61
2023/04/01 09:36:08;;;;;;;1.40;0.90;;;7.70;99.90;;;;;;4883426;29;20237;-58
2023/04/01 09:38:53;;;;;;;0.90;0.80;;;7.70;99.90;;;;;;4884855;29;20690;-61
2023/04/01 09:41:31;;;;;;;1.23;0.80;;;7.60;99.90;;;;;;4884722;29;20332;-59
2023/04/01 09:44:17;;;;;;;0.80;0.70;;;7.70;99.90;;;;;;4898984;29;20804;-61
2023/04/01 09:47:09;;;;;;;2.23;0.87;;;7.70;99.90;;;;;;4897397;29;20241;-61
2023/04/01 09:49:55;;;;;;;2.47;1.00;;;7.70;99.90;;;;;;4898380;29;20229;-61
2023/04/01 09:52:34;;;;;;;1.00;0.90;;;7.70;99.90;;;;;;4903874;29;20232;-55
2023/04/01 09:55:58;;;;;;;1.10;1.00;;;7.60;99.90;;;;;;4899379;29;20257;-52
2023/04/01 09:59:02;;;;;;;1.23;0.80;;;7.70;99.90;;;;;;4899847;29;20345;-61
2023/04/01 10:02:15;;;;;;;1.07;0.97;;;7.60;99.90;;;;;;4898744;29;20252;-62
2023/04/01 10:05:25;;;;;;;1.20;0.90;;;7.60;99.90;;;;;;4900204;29;20274;-62
2023/04/01 10:08:20;;;;;;;1.00;0.80;;;7.60;99.90;;;;;;4898242;29;20231;-62
2023/04/01 10:11:03;;;;;;;1.10;0.80;;;7.50;99.90;;;;;;4912746;29;20233;-61
2023/04/01 10:14:11;;;;;;;1.30;0.90;;;7.50;99.90;;;;;;4898664;29;20277;-61
2023/04/01 10:17:01;;;;;;;1.50;0.97;;;7.50;99.90;;;;;;4907480;29;20642;-61
2023/04/01 10:20:21;;;;;;;0.97;0.90;;;7.40;99.90;;;;;;4909910;29;20668;-61
2023/04/01 10:23:11;;;;;;;1.47;0.80;;;7.50;99.90;;;;;;4866015;29;20229;-62
2023/04/01 10:26:11;;;;;;;1.60;1.03;;;7.50;99.90;;;;;;4898355;29;20233;-61
2023/04/01 10:29:31;;;;;;;1.63;1.10;;;7.60;99.90;;;;;;4890272;29;20714;-61
2023/04/01 10:32:30;;;;;;;1.13;0.90;;;7.50;99.90;;;;;;4843820;29;20231;-62
2023/04/01 10:35:26;;;;;;;0.83;0.83;;;7.50;99.90;;;;;;4910191;29;20600;-61
2023/04/01 10:38:29;;;;;;;1.13;0.90;;;7.50;99.90;;;;;;4912355;29;20229;-61
2023/04/01 10:41:24;;;;;;;1.27;1.03;;;7.50;99.90;;;;;;4898478;29;20228;-62
2023/04/01 10:44:36;;;;;;;1.13;0.80;;;7.50;99.90;;;;;;4885199;29;20288;-62
2023/04/01 10:47:47;;;;;;;1.30;1.00;;;7.60;99.90;;;;;;4898787;29;20225;-62
2023/04/01 10:50:38;;;;;;;1.53;1.00;;;7.50;99.90;;;;;;4889171;29;20272;-62
2023/04/01 10:53:35;;;;;;;1.00;0.93;;;7.60;99.90;;;;;;4895609;29;20352;-62
2023/04/01 10:56:48;;;;;;;1.30;0.80;;;7.60;99.90;;;;;;4886535;29;20228;-62
2023/04/01 11:00:21;;;;;;;0.80;0.60;;;7.50;99.90;;;;;;4888027;29;20232;-61
2023/04/01 11:03:50;;;;;;;1.53;1.00;;;7.50;99.90;;;;;;4871097;29;20252;-59
2023/04/01 11:07:20;;;;;;;1.20;0.90;;;7.60;99.90;;;;;;4884699;29;20312;-61
2023/04/01 11:10:28;;;;;;;0.83;0.83;;;7.70;99.90;;;;;;4873671;29;20244;-59
2023/04/01 11:13:24;;;;;;;0.80;0.80;;;7.70;99.90;;;;;;4884756;29;20233;-60
2023/04/01 11:16:32;;;;;;;1.03;0.70;;;7.60;99.90;;;;;;4899042;29;20225;-61
2023/04/01 11:19:55;;;;;;;0.70;0.70;;;7.60;99.90;;;;;;4900122;29;20637;-62
2023/04/01 11:22:46;;;;;;;1.10;0.73;;;7.60;99.90;;;;;;4846048;29;20330;-60
2023/04/01 11:25:51;;;;;;;0.97;0.70;;;7.60;99.90;;;;;;4846531;29;20444;-59
2023/04/01 11:29:01;;;;;;;0.73;0.63;;;7.60;99.90;;;;;;4885736;29;20248;-58
2023/04/01 11:31:38;;;;;;;0.70;0.70;;;7.60;99.90;;;;;;4899144;29;20801;-61
2023/04/01 11:34:17;;;;;;;0.60;0.60;;;7.70;99.90;;;;;;4884306;29;20237;-61
2023/04/01 11:36:55;;;;;;;0.50;0.50;;;7.70;99.90;;;;;;4901232;29;20233;-59
2023/04/01 11:39:37;;;;;;;1.23;0.60;;;7.70;99.90;;;;;;4884302;29;20302;-60
2023/04/01 11:42:21;;;;;;;0.67;0.60;;;7.60;99.90;;;;;;4884825;29;20225;-61
2023/04/01 11:45:20;;;;;;;1.07;0.60;;;7.70;99.90;;;;;;4884955;29;20269;-61
2023/04/01 11:48:03;;;;;;;0.83;0.53;;;7.70;99.90;;;;;;4900342;29;20233;-61
2023/04/01 11:50:46;;;;;;;0.63;0.60;;;7.80;99.90;;;;;;4885215;29;20233;-59
2023/04/01 11:53:24;;;;;;;0.80;0.70;;;7.80;99.90;;;;;;4884645;29;20231;-62
2023/04/01 11:56:08;;;;;;;0.73;0.73;;;7.90;99.90;;;;;;4883794;29;20244;-61
2023/04/01 11:59:26;;;;;;;0.93;0.70;;;7.80;99.90;;;;;;4883977;29;20229;-60
2023/04/01 12:02:04;;;;;;;0.70;0.70;;;7.80;99.90;;;;;;4884588;29;20249;-61
2023/04/01 12:04:54;;;;;;;1.07;0.97;;;7.80;99.90;;;;;;4884707;29;20772;-61
2023/04/01 12:07:38;;;;;;;1.10;1.00;;;7.80;99.90;;;;;;4884441;29;20229;-52
2023/04/01 12:10:18;;;;;;;1.03;0.80;;;7.70;99.90;;;;;;4885793;29;20245;-51
2023/04/01 12:12:53;;;;;;;1.20;0.90;;;7.60;99.90;;;;;;4884887;29;20857;-52
2023/04/01 12:15:37;;;;;;;1.10;1.00;;;7.60;99.90;;;;;;4885650;29;20255;-49
2023/04/01 12:18:16;;;;;;;1.57;0.80;;;7.60;99.90;;;;;;4883628;29;20327;-49
2023/04/01 12:20:51;;;;;;;0.93;0.80;;;7.60;99.90;;;;;;4884526;29;20240;-51
2023/04/01 12:23:35;;;;;;;1.40;1.30;;;7.70;99.90;;;;;;4885463;29;20279;-49
2023/04/01 12:26:20;;;;;;;1.90;1.37;;;7.70;99.90;;;;;;4884206;29;20238;-51
2023/04/01 12:29:04;;;;;;;1.63;1.53;;;7.60;99.90;;;;;;4884639;29;20233;-52
2023/04/01 12:31:43;;;;;;;2.00;1.80;;;7.60;99.90;;;;;;4884761;29;21133;-50
2023/04/01 12:34:35;;;;;;;3.50;2.07;;;7.60;99.90;;;;;;4884747;29;20237;-50
2023/04/01 12:37:13;;;;;;;2.40;2.20;;;7.60;99.90;;;;;;4883502;29;20237;-50
2023/04/01 12:40:03;;;;;;;2.53;2.20;;;7.50;99.90;;;;;;4885971;29;20229;-51
2023/04/01 12:42:56;;;;;;;3.10;2.50;;;7.50;99.90;;;;;;4886120;29;21029;-49
2023/04/01 12:45:32;;;;;;;2.90;2.60;;;7.50;99.90;;;;;;4886292;29;20237;-51
2023/04/01 12:48:23;;;;;;;3.23;2.93;;;7.40;99.90;;;;;;4885494;29;20237;-50
2023/04/01 12:51:09;;;;;;;2.87;2.27;;;7.40;99.90;;;;;;4864773;29;20288;-52
2023/04/01 12:53:53;;;;;;;2.87;2.40;;;7.30;99.90;;;;;;4886258;29;20226;-52
2023/04/01 12:56:37;;;;;;;2.73;2.20;;;7.30;99.90;;;;;;4889624;29;20229;-52
2023/04/01 12:59:27;;;;;;;4.17;3.00;;;7.30;99.90;;;;;;4892496;29;20708;-51
2023/04/01 13:02:08;;;;;;;3.50;2.53;;;7.30;99.90;;;;;;4892010;29;20720;-52
2023/04/01 13:05:12;;;;;;;3.70;2.73;;;7.30;99.90;;;;;;4891741;29;20611;-49
2023/04/01 13:08:05;;;;;;;3.13;2.87;;;7.20;99.90;;;;;;4890331;29;20323;-49
2023/04/01 13:10:46;;;;;;;4.10;3.57;;;7.30;99.90;;;;;;4890812;29;20684;-52
2023/04/01 13:13:40;;;;;;;5.53;3.80;;;7.20;99.90;;;;;;4890093;29;20244;-52
2023/04/01 13:16:14;;;;;;;6.50;4.03;;;7.10;99.90;;;;;;4859273;29;21371;-52
2023/04/01 13:18:55;;;;;;;6.20;4.10;;;7.10;99.90;;;;;;4889605;29;20315;-50
2023/04/01 13:21:35;;;;;;;4.80;3.90;;;7.00;99.90;;;;;;4891131;29;20232;-51
2023/04/01 13:24:14;;;;;;;7.33;4.07;;;7.00;99.90;;;;;;4892350;29;20601;-49
2023/04/01 13:26:57;;;;;;;4.47;4.07;;;7.00;99.90;;;;;;4890822;29;20279;-49
2023/04/01 13:29:32;;;;;;;5.27;4.37;;;7.00;99.90;;;;;;4887882;29;20815;-52
2023/04/01 13:32:13;;;;;;;4.33;3.93;;;7.00;99.90;;;;;;4888274;29;20235;-53
2023/04/01 13:34:53;;;;;;;6.23;4.17;;;7.00;99.90;;;;;;4890236;29;20604;-50
2023/04/01 13:37:35;;;;;;;4.80;4.03;;;7.00;99.90;;;;;;4888278;29;20248;-52
2023/04/01 13:40:29;;;;;;;6.83;4.60;;;6.90;99.90;;;;;;4890157;29;20232;-50
2023/04/01 13:43:01;;;;;;;5.70;4.03;;;6.90;99.90;;;;;;4888027;29;20739;-52
2023/04/01 13:45:43;;;;;;;6.67;4.53;;;7.00;99.90;;;;;;4889244;29;20244;-51
2023/04/01 13:48:42;;;;;;;4.83;4.13;;;7.00;99.90;;;;;;4889709;29;20252;-50
2023/04/01 13:51:42;;;;;;;4.80;4.30;;;7.00;99.90;;;;;;4889903;29;20734;-51
2023/04/01 13:54:23;;;;;;;5.03;3.80;;;7.00;99.90;;;;;;4889465;29;20236;-51
2023/04/01 13:57:02;;;;;;;7.63;4.53;;;7.00;99.90;;;;;;4901737;29;20237;-50
2023/04/01 13:59:50;;;;;;;5.60;4.50;;;7.00;99.90;;;;;;4895398;29;20293;-49
2023/04/01 14:02:59;;;;;;;4.60;3.97;;;7.00;99.90;;;;;;4891066;29;20574;-50
2023/04/01 14:05:54;;;;;;;5.77;3.93;;;6.90;99.90;;;;;;4850777;29;20245;-62